createdAt,value
2023-03-03T00:01:47.496Z,19.93
2023-03-03T00:03:50.244Z,18.60
2023-03-03T00:05:53.109Z,18.93
2023-03-03T00:07:57.146Z,17.70
2023-03-03T00:09:59.971Z,17.60
2023-03-03T00:12:02.700Z,16.70
2023-03-03T00:14:22.355Z,17.33
2023-03-03T00:16:26.256Z,17.47
2023-03-03T00:18:31.613Z,18.80
2023-03-03T00:20:36.598Z,17.20
2023-03-03T00:22:40.196Z,17.57
2023-03-03T00:24:44.253Z,17.17
2023-03-03T00:26:47.457Z,18.20
2023-03-03T00:28:51.241Z,18.00
2023-03-03T00:30:54.294Z,16.63
2023-03-03T00:32:57.026Z,16.33
2023-03-03T00:35:03.696Z,18.93
2023-03-03T00:37:20.603Z,17.13
2023-03-03T00:39:29.815Z,17.57
2023-03-03T00:41:35.705Z,18.13
2023-03-03T00:43:38.424Z,18.50
2023-03-03T00:45:42.598Z,17.37
2023-03-03T00:47:45.316Z,19.20
2023-03-03T00:49:48.038Z,17.13
2023-03-03T00:51:50.753Z,17.37
2023-03-03T00:53:53.481Z,16.57
2023-03-03T00:55:56.424Z,16.90
2023-03-03T00:58:00.481Z,16.40
2023-03-03T01:00:03.198Z,16.03
2023-03-03T01:02:06.038Z,16.00
2023-03-03T01:04:08.736Z,15.07
2023-03-03T01:06:11.941Z,13.77
2023-03-03T01:08:14.718Z,15.23
2023-03-03T01:10:17.496Z,15.50
2023-03-03T01:12:20.194Z,14.80
2023-03-03T01:14:24.309Z,15.43
2023-03-03T01:16:27.046Z,14.70
2023-03-03T01:18:30.192Z,15.77
2023-03-03T01:20:32.928Z,14.77
2023-03-03T01:22:35.629Z,14.83
2023-03-03T01:24:38.345Z,14.57
2023-03-03T01:26:41.071Z,14.57
2023-03-03T01:28:43.782Z,14.50
2023-03-03T01:30:46.876Z,14.13
2023-03-03T01:32:49.584Z,15.57
2023-03-03T01:34:52.447Z,15.40
2023-03-03T01:36:55.192Z,15.57
2023-03-03T01:38:58.016Z,14.93
2023-03-03T01:41:00.944Z,14.50
2023-03-03T01:43:03.649Z,13.83
2023-03-03T01:45:20.806Z,13.10
2023-03-03T01:47:25.844Z,15.43
2023-03-03T01:49:30.170Z,15.50
2023-03-03T01:51:34.620Z,14.90
2023-03-03T01:53:39.876Z,17.10
2023-03-03T01:55:42.689Z,15.50
2023-03-03T01:57:47.091Z,14.17
2023-03-03T01:59:50.537Z,14.77
2023-03-03T02:01:53.281Z,13.90
2023-03-03T02:03:57.327Z,14.77
2023-03-03T02:06:01.726Z,15.93
2023-03-03T02:08:04.527Z,15.00
2023-03-03T02:10:08.448Z,15.20
2023-03-03T02:12:13.551Z,17.73
2023-03-03T02:14:16.266Z,18.70
2023-03-03T02:16:19.019Z,16.40
2023-03-03T02:18:21.734Z,17.47
2023-03-03T02:20:34.366Z,17.03
2023-03-03T02:22:44.164Z,17.10
2023-03-03T02:24:49.244Z,16.57
2023-03-03T02:26:53.295Z,16.37
2023-03-03T02:28:56.007Z,16.90
2023-03-03T02:30:59.283Z,14.90
2023-03-03T02:33:01.981Z,15.03
2023-03-03T02:35:40.834Z,17.77
2023-03-03T02:37:43.570Z,16.87
2023-03-03T02:39:46.306Z,17.20
2023-03-03T02:41:51.275Z,16.10
2023-03-03T02:43:57.917Z,16.33
2023-03-03T02:46:00.837Z,14.03
2023-03-03T02:48:03.535Z,15.63
2023-03-03T02:50:07.237Z,15.00
2023-03-03T02:52:10.939Z,14.60
2023-03-03T02:54:14.326Z,14.80
2023-03-03T02:56:17.049Z,13.73
2023-03-03T02:58:19.807Z,15.00
2023-03-03T03:00:23.860Z,14.30
2023-03-03T03:02:27.256Z,14.07
2023-03-03T03:04:30.111Z,13.80
2023-03-03T03:06:32.839Z,15.57
2023-03-03T03:08:35.542Z,15.37
2023-03-03T03:10:38.311Z,16.03
2023-03-03T03:12:41.010Z,15.90
2023-03-03T03:14:43.783Z,14.63
2023-03-03T03:16:47.872Z,15.70
2023-03-03T03:18:51.566Z,15.53
2023-03-03T03:20:54.308Z,15.50
2023-03-03T03:22:57.203Z,16.13
2023-03-03T03:25:00.244Z,15.07
2023-03-03T03:27:02.968Z,15.57
2023-03-03T03:29:06.216Z,16.20
2023-03-03T03:31:09.137Z,15.80
2023-03-03T03:33:13.233Z,14.63
2023-03-03T03:35:17.261Z,15.93
2023-03-03T03:37:20.021Z,15.73
2023-03-03T03:39:22.729Z,16.60
2023-03-03T03:41:25.449Z,15.53
2023-03-03T03:43:28.175Z,14.93
2023-03-03T03:45:30.957Z,14.57
2023-03-03T03:47:33.667Z,15.90
2023-03-03T03:49:37.714Z,14.23
2023-03-03T03:51:41.901Z,16.23
2023-03-03T03:53:45.613Z,15.00
2023-03-03T03:55:48.389Z,15.47
2023-03-03T03:57:51.116Z,15.60
2023-03-03T03:59:53.808Z,15.60
2023-03-03T04:01:56.597Z,14.77
2023-03-03T04:03:59.624Z,15.87
2023-03-03T04:06:03.715Z,15.50
2023-03-03T04:08:06.825Z,17.67
2023-03-03T04:10:10.527Z,18.27
2023-03-03T04:12:13.422Z,16.37
2023-03-03T04:14:16.122Z,17.20
2023-03-03T04:16:18.849Z,16.90
2023-03-03T04:18:21.545Z,16.60
2023-03-03T04:20:24.432Z,18.40
2023-03-03T04:22:28.488Z,16.60
2023-03-03T04:24:31.231Z,17.17
2023-03-03T04:26:34.328Z,17.37
2023-03-03T04:28:37.031Z,18.40
2023-03-03T04:30:39.756Z,19.60
2023-03-03T04:32:42.486Z,18.13
2023-03-03T04:34:47.309Z,19.17
2023-03-03T04:36:51.669Z,17.93
2023-03-03T04:38:56.032Z,21.07
2023-03-03T04:40:58.809Z,20.07
2023-03-03T04:43:01.533Z,19.67
2023-03-03T04:45:04.489Z,18.77
2023-03-03T04:47:07.205Z,25.67
2023-03-03T04:49:12.417Z,22.33
2023-03-03T04:51:16.607Z,20.53
2023-03-03T04:53:19.316Z,22.10
2023-03-03T04:55:23.366Z,23.60
2023-03-03T04:57:26.161Z,22.30
2023-03-03T04:59:28.875Z,22.07
2023-03-03T05:01:31.612Z,19.07
2023-03-03T05:03:34.331Z,18.03
2023-03-03T05:05:37.046Z,18.37
2023-03-03T05:07:39.746Z,19.13
2023-03-03T05:09:42.448Z,19.83
2023-03-03T05:11:46.512Z,18.63
2023-03-03T05:13:49.313Z,19.67
2023-03-03T05:15:52.233Z,23.60
2023-03-03T05:17:56.360Z,20.30
2023-03-03T05:19:59.065Z,18.63
2023-03-03T05:22:02.063Z,18.60
2023-03-03T05:24:05.078Z,20.77
2023-03-03T05:26:07.798Z,19.40
2023-03-03T05:28:11.932Z,18.77
2023-03-03T05:30:15.034Z,20.00
2023-03-03T05:32:17.809Z,19.50
2023-03-03T05:34:20.533Z,19.40
2023-03-03T05:36:23.393Z,18.70
2023-03-03T05:38:26.558Z,18.60
2023-03-03T05:40:29.261Z,19.30
2023-03-03T05:42:32.268Z,17.27
2023-03-03T05:44:36.433Z,17.67
2023-03-03T05:46:39.200Z,20.80
2023-03-03T05:48:42.001Z,17.80
2023-03-03T05:50:44.723Z,20.10
2023-03-03T05:52:49.182Z,18.20
2023-03-03T05:54:51.888Z,17.63
2023-03-03T05:56:55.489Z,21.63
2023-03-03T05:58:58.201Z,30.47
2023-03-03T06:01:02.317Z,27.67
2023-03-03T06:03:05.080Z,17.50
2023-03-03T06:05:08.388Z,17.87
2023-03-03T06:07:11.471Z,18.53
2023-03-03T06:09:14.180Z,19.10
2023-03-03T06:11:19.342Z,19.20
2023-03-03T06:13:22.047Z,18.87
2023-03-03T06:15:24.832Z,16.47
2023-03-03T06:17:28.899Z,16.83
2023-03-03T06:19:31.598Z,17.27
2023-03-03T06:21:34.310Z,17.37
2023-03-03T06:23:37.004Z,27.87
2023-03-03T06:25:40.287Z,20.30
2023-03-03T06:27:42.995Z,21.10
2023-03-03T06:29:45.840Z,70.07
2023-03-03T06:31:48.595Z,49.67
2023-03-03T06:33:52.661Z,29.07
2023-03-03T06:35:55.585Z,18.90
2023-03-03T06:37:58.338Z,18.73
2023-03-03T06:40:01.061Z,19.40
2023-03-03T06:42:03.788Z,19.13
2023-03-03T06:44:06.524Z,19.87
2023-03-03T06:46:09.343Z,19.60
2023-03-03T06:48:12.109Z,19.70
2023-03-03T06:50:16.143Z,17.67
2023-03-03T06:52:20.344Z,17.10
2023-03-03T06:54:27.366Z,19.13
2023-03-03T06:56:30.979Z,17.40
2023-03-03T06:58:36.084Z,18.50
2023-03-03T07:00:38.807Z,18.90
2023-03-03T07:02:41.534Z,19.67
2023-03-03T07:04:44.340Z,19.90
2023-03-03T07:06:48.399Z,19.60
2023-03-03T07:08:51.169Z,18.57
2023-03-03T07:10:54.020Z,21.07
2023-03-03T07:12:59.334Z,19.93
2023-03-03T07:15:12.397Z,20.40
2023-03-03T07:17:16.615Z,18.40
2023-03-03T07:19:21.409Z,18.87
2023-03-03T07:21:24.927Z,18.77
2023-03-03T07:23:42.351Z,20.30
2023-03-03T07:25:46.623Z,20.97
2023-03-03T07:27:49.537Z,21.13
2023-03-03T07:29:54.306Z,20.17
2023-03-03T07:31:57.440Z,19.80
2023-03-03T07:34:00.984Z,20.60
2023-03-03T07:36:04.194Z,21.27
2023-03-03T07:38:20.814Z,23.20
2023-03-03T07:40:32.931Z,19.87
2023-03-03T07:42:38.059Z,24.90
2023-03-03T07:44:40.801Z,23.45
2023-03-03T07:46:44.024Z,24.00
2023-03-03T07:48:46.781Z,22.10
2023-03-03T07:50:49.972Z,20.87
2023-03-03T07:52:56.984Z,20.80
2023-03-03T07:55:01.511Z,21.17
2023-03-03T07:57:16.219Z,19.90
2023-03-03T07:59:22.085Z,18.73
2023-03-03T08:01:39.629Z,20.50
2023-03-03T08:03:42.549Z,18.73
2023-03-03T08:05:45.555Z,19.03
2023-03-03T08:07:48.280Z,19.67
2023-03-03T08:09:51.981Z,18.37
2023-03-03T08:11:55.811Z,16.03
2023-03-03T08:13:59.877Z,18.27
2023-03-03T08:16:03.524Z,18.70
2023-03-03T08:18:15.888Z,19.70
2023-03-03T08:20:45.553Z,18.90
2023-03-03T08:22:48.298Z,18.47
2023-03-03T08:24:51.590Z,20.93
2023-03-03T08:26:54.296Z,20.20
2023-03-03T08:28:57.027Z,20.80
2023-03-03T08:31:15.254Z,20.83
2023-03-03T08:33:20.967Z,20.10
2023-03-03T08:35:23.706Z,20.97
2023-03-03T08:37:26.454Z,18.50
2023-03-03T08:39:29.196Z,20.73
2023-03-03T08:41:31.904Z,18.30
2023-03-03T08:43:34.739Z,19.57
2023-03-03T08:45:37.671Z,18.53
2023-03-03T08:47:43.031Z,18.67
2023-03-03T08:49:45.755Z,19.47
2023-03-03T08:51:48.512Z,19.10
2023-03-03T08:53:51.234Z,19.83
2023-03-03T08:55:53.980Z,18.50
2023-03-03T08:57:56.753Z,19.33
2023-03-03T08:59:59.480Z,19.80
2023-03-03T09:02:02.219Z,17.03
2023-03-03T09:04:06.438Z,19.50
2023-03-03T09:06:09.187Z,19.40
2023-03-03T09:08:11.925Z,20.10
2023-03-03T09:10:16.249Z,20.20
2023-03-03T09:12:19.894Z,18.70
2023-03-03T09:14:22.640Z,19.70
2023-03-03T09:16:25.375Z,23.47
2023-03-03T09:18:32.325Z,21.10
2023-03-03T09:20:37.973Z,20.90
2023-03-03T09:22:40.682Z,20.33
2023-03-03T09:24:43.399Z,19.80
2023-03-03T09:26:47.307Z,21.50
2023-03-03T09:28:50.238Z,20.50
2023-03-03T09:30:53.957Z,19.57
2023-03-03T09:32:57.450Z,19.33
2023-03-03T09:35:00.436Z,18.37
2023-03-03T09:37:16.141Z,19.23
2023-03-03T09:39:19.898Z,20.70
2023-03-03T09:41:37.493Z,20.10
2023-03-03T09:43:43.491Z,18.50
2023-03-03T09:45:51.179Z,19.20
2023-03-03T09:48:00.092Z,22.10
2023-03-03T09:50:06.913Z,23.00
2023-03-03T09:52:19.657Z,19.47
2023-03-03T09:54:29.348Z,21.10
2023-03-03T09:56:33.785Z,21.10
2023-03-03T09:58:45.790Z,20.97
2023-03-03T10:00:55.243Z,20.83
2023-03-03T10:03:30.293Z,22.93
2023-03-03T10:05:38.855Z,18.53
2023-03-03T10:07:47.152Z,21.93
2023-03-03T10:10:07.863Z,24.10
2023-03-03T10:12:12.486Z,21.47
2023-03-03T10:14:26.636Z,24.40
2023-03-03T10:16:49.691Z,26.20
2023-03-03T10:18:54.089Z,28.00
2023-03-03T10:21:03.162Z,26.10
2023-03-03T10:23:11.934Z,23.60
2023-03-03T10:25:23.320Z,22.20
2023-03-03T10:27:34.710Z,24.80
2023-03-03T10:29:38.585Z,26.30
2023-03-03T10:31:48.460Z,26.67
2023-03-03T10:33:54.433Z,24.87
2023-03-03T10:36:17.874Z,23.90
2023-03-03T10:38:27.461Z,23.77
2023-03-03T10:40:32.972Z,22.37
2023-03-03T10:43:01.537Z,23.07
2023-03-03T10:45:22.670Z,25.70
2023-03-03T10:47:35.632Z,23.93
2023-03-03T10:49:45.794Z,23.93
2023-03-03T10:51:56.472Z,21.47
2023-03-03T10:54:08.587Z,25.47
2023-03-03T10:56:25.315Z,21.47
2023-03-03T10:58:37.091Z,26.67
2023-03-03T11:00:41.804Z,26.40
2023-03-03T11:02:50.127Z,25.70
2023-03-03T11:05:18.816Z,26.43
2023-03-03T11:07:23.390Z,27.73
2023-03-03T11:09:37.601Z,26.70
2023-03-03T11:11:42.321Z,24.00
2023-03-03T11:13:48.215Z,24.50
2023-03-03T11:16:17.985Z,27.90
2023-03-03T11:18:26.105Z,27.63
2023-03-03T11:20:32.920Z,24.27
2023-03-03T11:22:39.469Z,24.87
2023-03-03T11:24:51.081Z,26.03
2023-03-03T11:27:01.535Z,23.97
2023-03-03T11:29:12.534Z,25.77
2023-03-03T11:31:19.602Z,28.63
2023-03-03T11:33:24.036Z,27.77
2023-03-03T11:35:29.007Z,24.77
2023-03-03T11:37:38.085Z,24.47
2023-03-03T11:39:40.886Z,27.10
2023-03-03T11:41:50.901Z,26.10
2023-03-03T11:43:54.486Z,22.37
2023-03-03T11:45:58.670Z,24.20
2023-03-03T11:48:05.585Z,24.90
2023-03-03T11:50:11.737Z,23.57
2023-03-03T11:52:23.569Z,21.07
2023-03-03T11:54:28.858Z,25.30
2023-03-03T11:56:35.379Z,24.13
2023-03-03T11:58:40.936Z,26.40
2023-03-03T12:00:45.869Z,24.43
2023-03-03T12:03:05.381Z,22.13
2023-03-03T12:05:09.909Z,23.90
2023-03-03T12:07:20.240Z,24.50
2023-03-03T12:09:34.540Z,25.43
2023-03-03T12:11:41.425Z,25.00
2023-03-03T12:13:51.666Z,25.07
2023-03-03T12:15:56.032Z,23.50
2023-03-03T12:18:21.966Z,27.23
2023-03-03T12:20:26.764Z,23.47
2023-03-03T12:22:34.076Z,22.10
2023-03-03T12:24:45.147Z,22.33
2023-03-03T12:26:51.026Z,27.00
2023-03-03T12:28:56.137Z,26.43
2023-03-03T12:31:10.473Z,25.20
2023-03-03T12:33:21.593Z,25.27
2023-03-03T12:35:28.556Z,28.10
2023-03-03T12:37:46.338Z,24.33
2023-03-03T12:39:55.556Z,25.47
2023-03-03T12:42:04.381Z,23.60
2023-03-03T12:44:14.246Z,25.13
2023-03-03T12:46:21.049Z,24.30
2023-03-03T12:48:26.397Z,23.20
2023-03-03T12:50:35.637Z,26.00
2023-03-03T12:52:43.716Z,25.03
2023-03-03T12:55:01.910Z,24.87
2023-03-03T12:57:09.261Z,23.40
2023-03-03T12:59:18.269Z,25.10
2023-03-03T13:01:28.526Z,22.97
2023-03-03T13:03:49.541Z,23.57
2023-03-03T13:05:59.752Z,25.40
2023-03-03T13:08:21.039Z,22.03
2023-03-03T13:10:26.887Z,22.93
2023-03-03T13:12:33.209Z,22.60
2023-03-03T13:14:40.906Z,22.67
2023-03-03T13:16:45.757Z,22.80
2023-03-03T13:18:53.099Z,23.57
2023-03-03T13:20:58.612Z,22.30
2023-03-03T13:23:05.982Z,21.83
2023-03-03T13:25:24.758Z,20.87
2023-03-03T13:27:28.796Z,22.20
2023-03-03T13:29:34.616Z,22.23
2023-03-03T13:31:40.606Z,22.63
2023-03-03T13:33:48.994Z,23.00
2023-03-03T13:35:54.875Z,23.47
2023-03-03T13:37:58.100Z,21.17
2023-03-03T13:40:03.200Z,21.97
2023-03-03T13:42:07.674Z,23.00
2023-03-03T13:44:12.418Z,23.57
2023-03-03T13:46:17.922Z,21.10
2023-03-03T13:48:29.766Z,21.47
2023-03-03T13:50:34.657Z,23.20
2023-03-03T13:52:39.863Z,23.07
2023-03-03T13:55:04.792Z,22.70
2023-03-03T13:57:14.555Z,20.13
2023-03-03T13:59:22.312Z,19.83
2023-03-03T14:01:28.481Z,20.73
2023-03-03T14:03:58.535Z,19.73
2023-03-03T14:06:03.307Z,19.57
2023-03-03T14:08:10.847Z,19.30
2023-03-03T14:10:17.057Z,17.80
2023-03-03T14:12:23.549Z,19.33
2023-03-03T14:14:39.319Z,18.90
2023-03-03T14:16:47.934Z,19.13
2023-03-03T14:18:55.930Z,19.90
2023-03-03T14:21:02.899Z,18.97
2023-03-03T14:23:09.714Z,17.07
2023-03-03T14:25:13.025Z,16.43
2023-03-03T14:27:24.338Z,17.50
2023-03-03T14:29:32.352Z,21.43
2023-03-03T14:31:40.534Z,21.50
2023-03-03T14:33:43.908Z,16.73
2023-03-03T14:35:51.819Z,20.23
2023-03-03T14:37:55.981Z,20.37
2023-03-03T14:40:03.181Z,18.57
2023-03-03T14:42:10.327Z,18.07
2023-03-03T14:44:30.008Z,20.23
2023-03-03T14:46:36.502Z,22.20
2023-03-03T14:48:39.451Z,22.20
2023-03-03T14:50:43.240Z,20.17
2023-03-03T14:52:46.064Z,22.83
2023-03-03T14:54:50.894Z,20.53
2023-03-03T14:57:04.997Z,20.37
2023-03-03T14:59:18.512Z,21.60
2023-03-03T15:01:31.108Z,21.97
2023-03-03T15:03:34.064Z,24.70
2023-03-03T15:05:37.084Z,20.47
2023-03-03T15:07:40.090Z,23.50
2023-03-03T15:09:43.686Z,23.30
2023-03-03T15:11:47.917Z,27.63
2023-03-03T15:13:50.745Z,33.37
2023-03-03T15:15:54.321Z,27.07
2023-03-03T15:17:59.898Z,30.40
2023-03-03T15:20:14.795Z,32.33
2023-03-03T15:22:21.395Z,30.00
2023-03-03T15:24:26.144Z,36.13
2023-03-03T15:26:31.102Z,32.60
2023-03-03T15:28:41.788Z,30.53
2023-03-03T15:30:47.974Z,39.10
2023-03-03T15:32:53.951Z,33.63
2023-03-03T15:35:00.141Z,34.03
2023-03-03T15:37:08.840Z,40.63
2023-03-03T15:39:17.797Z,44.40
2023-03-03T15:41:26.798Z,40.37
2023-03-03T15:43:33.209Z,36.20
2023-03-03T15:45:40.363Z,39.80
2023-03-03T15:47:57.976Z,38.10
2023-03-03T15:50:25.170Z,43.40
2023-03-03T15:52:36.173Z,40.63
2023-03-03T15:54:42.800Z,41.23
2023-03-03T15:56:48.057Z,36.80
2023-03-03T15:59:03.013Z,40.60
2023-03-03T16:01:10.644Z,30.33
2023-03-03T16:03:15.233Z,33.20
2023-03-03T16:05:21.799Z,27.77
2023-03-03T16:07:30.767Z,30.33
2023-03-03T16:09:42.852Z,25.83
2023-03-03T16:11:47.621Z,22.60
2023-03-03T16:14:01.371Z,25.30
2023-03-03T16:16:11.200Z,21.20
2023-03-03T16:18:17.792Z,21.57
2023-03-03T16:20:22.631Z,20.60
2023-03-03T16:22:31.430Z,18.60
2023-03-03T16:24:40.307Z,19.50
2023-03-03T16:26:46.357Z,17.63
2023-03-03T16:29:00.308Z,17.77
2023-03-03T16:31:09.210Z,21.03
2023-03-03T16:33:20.521Z,22.10
2023-03-03T16:35:24.380Z,19.90
2023-03-03T16:37:30.720Z,19.57
2023-03-03T16:39:39.852Z,20.27
2023-03-03T16:41:48.427Z,20.20
2023-03-03T16:43:59.841Z,16.33
2023-03-03T16:46:04.318Z,18.80
2023-03-03T16:48:18.068Z,20.43
2023-03-03T16:50:27.292Z,17.80
2023-03-03T16:52:33.460Z,18.80
2023-03-03T16:54:37.175Z,16.93
2023-03-03T16:56:41.856Z,17.37
2023-03-03T16:58:50.816Z,18.40
2023-03-03T17:00:56.025Z,15.90
2023-03-03T17:03:26.262Z,17.47
2023-03-03T17:05:37.257Z,13.40
2023-03-03T17:07:44.651Z,19.07
2023-03-03T17:09:53.286Z,18.60
2023-03-03T17:12:02.465Z,19.20
2023-03-03T17:14:24.876Z,16.13
2023-03-03T17:16:42.704Z,17.67
2023-03-03T17:18:57.521Z,18.00
2023-03-03T17:21:02.012Z,17.90
2023-03-03T17:23:16.620Z,21.30
2023-03-03T17:25:22.343Z,17.17
2023-03-03T17:27:28.564Z,17.87
2023-03-03T17:29:48.582Z,18.87
2023-03-03T17:31:54.376Z,18.30
2023-03-03T17:34:20.970Z,19.27
2023-03-03T17:36:31.957Z,15.90
2023-03-03T17:38:39.549Z,16.90
2023-03-03T17:40:50.341Z,16.67
2023-03-03T17:42:56.466Z,18.13
2023-03-03T17:45:03.527Z,21.40
2023-03-03T17:47:09.120Z,21.90
2023-03-03T17:49:34.909Z,20.17
2023-03-03T17:51:59.341Z,19.17
2023-03-03T17:54:38.865Z,20.77
2023-03-03T17:56:44.976Z,17.47
2023-03-03T17:59:19.431Z,19.50
2023-03-03T18:01:26.691Z,18.87
2023-03-03T18:03:45.641Z,19.40
2023-03-03T18:05:56.690Z,14.93
2023-03-03T18:08:26.948Z,20.70
2023-03-03T18:10:53.799Z,21.10
2023-03-03T18:12:59.876Z,19.50
2023-03-03T18:15:16.315Z,19.40
2023-03-03T18:17:51.753Z,18.77
2023-03-03T18:20:03.030Z,19.13
2023-03-03T18:22:07.685Z,22.07
2023-03-03T18:24:34.348Z,22.80
2023-03-03T18:26:38.202Z,18.50
2023-03-03T18:28:46.423Z,20.57
2023-03-03T18:30:57.432Z,18.40
2023-03-03T18:33:11.207Z,20.97
2023-03-03T18:35:25.415Z,19.03
2023-03-03T18:37:40.448Z,19.50
2023-03-03T18:39:46.567Z,19.37
2023-03-03T18:42:06.832Z,18.20
2023-03-03T18:44:25.285Z,19.83
2023-03-03T18:46:55.241Z,18.50
2023-03-03T18:48:59.367Z,21.40
2023-03-03T18:51:02.072Z,20.43
2023-03-03T18:53:20.049Z,21.97
2023-03-03T18:55:27.716Z,19.43
2023-03-03T18:57:30.759Z,20.27
2023-03-03T18:59:49.176Z,17.37
2023-03-03T19:01:51.982Z,21.17
2023-03-03T19:04:05.917Z,20.23
2023-03-03T19:06:10.320Z,20.10
2023-03-03T19:08:18.513Z,21.83
2023-03-03T19:10:56.448Z,19.50
2023-03-03T19:12:59.532Z,17.83
2023-03-03T19:15:02.247Z,18.90
2023-03-03T19:17:38.433Z,16.17
2023-03-03T19:20:00.450Z,19.00
2023-03-03T19:22:25.559Z,20.63
2023-03-03T19:24:33.636Z,19.97
2023-03-03T19:27:07.276Z,17.53
2023-03-03T19:29:20.430Z,16.60
2023-03-03T19:31:25.329Z,18.43
2023-03-03T19:33:41.640Z,16.97
2023-03-03T19:35:52.588Z,16.77
2023-03-03T19:37:59.948Z,17.73
2023-03-03T19:40:03.630Z,18.57
2023-03-03T19:42:12.706Z,17.07
2023-03-03T19:44:49.960Z,17.50
2023-03-03T19:46:56.380Z,17.73
2023-03-03T19:49:02.587Z,18.13
2023-03-03T19:51:09.453Z,18.43
2023-03-03T19:53:18.200Z,16.63
2023-03-03T19:55:27.162Z,17.70
2023-03-03T19:57:37.556Z,16.50
2023-03-03T19:59:42.798Z,15.90
2023-03-03T20:01:51.332Z,16.70
2023-03-03T20:04:15.247Z,16.83
2023-03-03T20:06:27.181Z,17.73
2023-03-03T20:08:32.469Z,14.80
2023-03-03T20:10:47.064Z,17.70
2023-03-03T20:13:00.103Z,17.53
2023-03-03T20:15:09.621Z,16.00
2023-03-03T20:17:26.063Z,15.30
2023-03-03T20:19:35.710Z,15.73
2023-03-03T20:21:39.890Z,15.70
2023-03-03T20:23:47.479Z,14.40
2023-03-03T20:25:51.945Z,15.20
2023-03-03T20:28:02.633Z,16.47
2023-03-03T20:30:13.167Z,15.13
2023-03-03T20:32:19.801Z,16.57
2023-03-03T20:34:27.775Z,15.57
2023-03-03T20:36:34.864Z,14.50
2023-03-03T20:38:41.769Z,13.73
2023-03-03T20:40:46.568Z,13.10
2023-03-03T20:42:52.935Z,13.00
2023-03-03T20:45:05.851Z,12.43
2023-03-03T20:47:12.023Z,12.37
2023-03-03T20:49:43.310Z,11.70
2023-03-03T20:51:48.144Z,10.80
2023-03-03T20:53:54.436Z,9.67
2023-03-03T20:56:01.025Z,8.90
2023-03-03T20:58:06.148Z,8.03
2023-03-03T21:00:12.800Z,7.90
2023-03-03T21:02:18.899Z,8.93
2023-03-03T21:04:23.010Z,7.93
2023-03-03T21:06:25.821Z,6.53
2023-03-03T21:08:42.176Z,7.23
2023-03-03T21:10:44.861Z,6.93
2023-03-03T21:12:47.559Z,6.70
2023-03-03T21:15:00.240Z,7.20
2023-03-03T21:17:24.260Z,6.27
2023-03-03T21:19:28.880Z,6.10
2023-03-03T21:21:33.430Z,6.37
2023-03-03T21:23:36.153Z,6.33
2023-03-03T21:25:52.050Z,6.30
2023-03-03T21:27:54.803Z,6.43
2023-03-03T21:30:07.957Z,6.57
2023-03-03T21:32:12.321Z,5.60
2023-03-03T21:34:23.583Z,6.70
2023-03-03T21:36:44.646Z,5.53
2023-03-03T21:38:47.536Z,5.40
2023-03-03T21:41:00.243Z,5.60
2023-03-03T21:43:02.942Z,4.83
2023-03-03T21:45:11.072Z,6.60
2023-03-03T21:47:16.258Z,6.27
2023-03-03T21:49:18.955Z,5.27
2023-03-03T21:51:24.215Z,5.30
2023-03-03T21:53:29.473Z,5.80
2023-03-03T21:55:32.182Z,6.10
2023-03-03T21:57:35.163Z,5.97
2023-03-03T21:59:37.928Z,6.83
2023-03-03T22:01:40.731Z,5.93
2023-03-03T22:03:45.790Z,5.43
2023-03-03T22:05:48.943Z,6.17
2023-03-03T22:07:51.646Z,5.90
2023-03-03T22:09:54.331Z,5.73
2023-03-03T22:11:57.016Z,5.67
2023-03-03T22:13:59.742Z,5.27
2023-03-03T22:16:02.530Z,5.27
2023-03-03T22:18:05.539Z,5.17
2023-03-03T22:20:11.174Z,6.60
2023-03-03T22:22:13.869Z,5.97
2023-03-03T22:24:16.674Z,5.90
2023-03-03T22:26:21.555Z,5.70
2023-03-03T22:28:24.274Z,4.90
2023-03-03T22:30:26.989Z,7.03
2023-03-03T22:32:30.417Z,6.27
2023-03-03T22:34:33.176Z,6.07
2023-03-03T22:36:37.201Z,5.93
2023-03-03T22:38:40.069Z,5.17
2023-03-03T22:40:42.767Z,5.67
2023-03-03T22:42:45.476Z,5.33
2023-03-03T22:44:48.147Z,6.30
2023-03-03T22:46:50.822Z,6.07
2023-03-03T22:48:53.529Z,5.60
2023-03-03T22:50:56.364Z,6.90
2023-03-03T22:53:00.408Z,6.57
2023-03-03T22:55:04.125Z,5.63
2023-03-03T22:57:06.900Z,6.83
2023-03-03T22:59:09.626Z,5.40
2023-03-03T23:01:12.315Z,7.03
2023-03-03T23:03:15.075Z,5.43
2023-03-03T23:05:17.975Z,5.23
2023-03-03T23:07:20.704Z,5.43
2023-03-03T23:09:24.747Z,6.17
2023-03-03T23:11:27.924Z,5.00
2023-03-03T23:13:31.729Z,4.97
2023-03-03T23:15:34.504Z,5.13
2023-03-03T23:17:37.206Z,5.27
2023-03-03T23:19:39.942Z,4.90
2023-03-03T23:21:42.641Z,6.07
2023-03-03T23:23:45.357Z,6.03
2023-03-03T23:25:49.382Z,6.10
2023-03-03T23:27:52.318Z,5.60
2023-03-03T23:29:55.397Z,5.00
2023-03-03T23:31:58.101Z,6.07
2023-03-03T23:34:00.887Z,5.50
2023-03-03T23:36:03.671Z,6.63
2023-03-03T23:38:06.385Z,5.97
2023-03-03T23:40:10.704Z,5.57
2023-03-03T23:42:14.737Z,5.37
2023-03-03T23:44:17.551Z,5.37
2023-03-03T23:46:20.271Z,5.07
2023-03-03T23:48:23.007Z,6.77
2023-03-03T23:50:25.694Z,4.97
2023-03-03T23:52:28.384Z,5.50
2023-03-03T23:54:31.113Z,5.43
2023-03-03T23:56:33.821Z,5.20
2023-03-03T23:58:37.888Z,7.70
